Tuesday, January 16, 2018, 12:28 PM EST
Back to Local

KSLK, Adirondack Regional Airport

Location: Saranac Lake, NY, United States Lat: 44.4
Local Time: 12:28 PM EST (17:28 GMT) Lon: -74.2
Time Zone: US/Eastern Elev: 1663 ft

Show me the last for .
Show Decoded

2018-01-16 11:51 METAR KSLK 161651Z AUTO 24006KT 5SM BR OVC018 M06/M08 A3027 RMK AO2 SNB34E45
                 SLP284 P0000 T10611083 =
2018-01-16 11:40 METAR KSLK 161640Z AUTO 23003KT 4SM -SN BR BKN018 OVC039 M07/M09 A3027 RMK AO2
                 SNB34 P0000 T10721089 =
2018-01-16 10:51 METAR KSLK 161551Z AUTO 00000KT 4SM BR BKN039 OVC047 M09/M10 A3030 RMK AO2
                 SLP297 T10891100 =
2018-01-16 09:51 METAR KSLK 161451Z AUTO 00000KT 3SM BR BKN034 OVC075 M11/M13 A3030 RMK AO2
                 SNB14E26B37E48 SLP300 P0000 60000 T11111128 53006 =
2018-01-16 09:33 METAR KSLK 161433Z AUTO 00000KT 2 1/2SM BR SCT019 BKN032 OVC075 M11/M13 A3030
                 RMK AO2 SNB14E26 P0000 T11111128 =
2018-01-16 09:15 METAR KSLK 161415Z AUTO 00000KT 4SM -SN BR BKN019 OVC080 M13/M14 A3029 RMK AO2
                 SNB14 P0000 T11281139 =
2018-01-16 08:51 METAR KSLK 161351Z AUTO 00000KT 5SM BR OVC080 M13/M14 A3029 RMK AO2 SLP296
                 T11281144 =
2018-01-16 07:51 METAR KSLK 161251Z AUTO 00000KT 8SM OVC095 M13/M14 A3028 RMK AO2 SNE35 SLP295
                 P0000 T11331144 =
2018-01-16 07:14 METAR KSLK 161214Z AUTO 00000KT 3SM -SN BR OVC038 M13/M14 A3028 RMK AO2 P0000
                 T11281144 =
2018-01-16 07:02 METAR KSLK 161202Z AUTO 00000KT 2 1/2SM -SN BR OVC034 M13/M14 A3028 RMK AO2
                 P0000 T11281144 =
2018-01-16 06:51 METAR KSLK 161151Z AUTO 2SM -SN BR OVC028 M13/M14 A3028 RMK AO2 SLP293 P0000
                 60002 70002 T11281144 11128 21150 53001 $ =
2018-01-16 06:40 METAR KSLK 161140Z AUTO 1 3/4SM -SN BR OVC028 M13/M14 A3028 RMK AO2 P0000
                 T11281144 $ =
2018-01-16 06:26 METAR KSLK 161126Z AUTO 2 1/2SM -SN BR OVC034 M13/M14 A3027 RMK AO2 P0000
                 T11281144 $ =
2018-01-16 06:05 METAR KSLK 161105Z AUTO 3SM -SN BR OVC039 M13/M14 A3028 RMK AO2 P0000 T11281144
                 $ =
2018-01-16 05:51 METAR KSLK 161051Z AUTO 2 1/2SM -SN BR OVC035 M13/M14 A3028 RMK AO2 SLP292 P0001
                 T11281144 $ =
2018-01-16 05:40 METAR KSLK 161040Z AUTO 2SM -SN BR OVC031 M13/M15 A3028 RMK AO2 P0001 T11281150
                 $ =
2018-01-16 05:16 METAR KSLK 161016Z AUTO 1 3/4SM -SN BR OVC027 M13/M15 A3027 RMK AO2 P0001
                 T11281150 $ =
2018-01-16 05:03 METAR KSLK 161003Z AUTO 3SM -SN BR OVC029 M13/M14 A3027 RMK AO2 P0000 T11331144
                 $ =
2018-01-16 04:51 METAR KSLK 160951Z AUTO 1 1/4SM -SN BR OVC023 M13/M15 A3027 RMK AO2 SLP290 P0000
                 T11331150 $ =
2018-01-16 04:44 METAR KSLK 160944Z AUTO 2 1/2SM -SN BR OVC027 M13/M15 A3027 RMK AO2 P0000
                 T11331150 $ =
2018-01-16 04:33 METAR KSLK 160933Z AUTO 5SM -SN BR OVC035 M13/M15 A3027 RMK AO2 P0000 T11331150
                 $ =
2018-01-16 04:25 METAR KSLK 160925Z AUTO 2 1/2SM -SN BR OVC035 M13/M15 A3027 RMK AO2 P0000
                 T11331150 $ =
2018-01-16 03:51 METAR KSLK 160851Z AUTO 2SM -SN BR OVC020 M13/M16 A3028 RMK AO2 SLP290 P0001
                 60001 T11331156 58008 $ =
2018-01-16 02:51 METAR KSLK 160751Z AUTO 1 1/2SM -SN BR OVC020 M14/M16 A3028 RMK AO2 SLP291 P0000
                 T11391161 $ =
2018-01-16 02:41 METAR KSLK 160741Z AUTO 00000KT 1 3/4SM -SN BR OVC022 M14/M16 A3028 RMK AO2
                 P0000 T11441161 $ =
2018-01-16 02:19 METAR KSLK 160719Z AUTO 03003KT 2SM -SN BR OVC023 M14/M16 A3029 RMK AO2 P0000
                 T11441161 $ =
2018-01-16 01:51 METAR KSLK 160651Z AUTO 02003KT 1 1/2SM -SN BR OVC015 M14/M17 A3030 RMK AO2
                 SNB0559 SLP298 P0000 T11441167 $ =
2018-01-16 01:30 METAR KSLK 160630Z AUTO 00000KT 1 1/4SM -SN OVC018 M14/M17 A3030 RMK AO2 SNB0559
                 P0000 T11441172 $ =
2018-01-16 01:14 METAR KSLK 160614Z AUTO 00000KT 2 1/2SM -SN BR OVC024 M15/M17 A3031 RMK AO2
                 SNB0559 P0000 T11501172 $ =
2018-01-16 01:07 METAR KSLK 160607Z AUTO 00000KT 3SM -SN BR BKN026 OVC070 M15/M17 A3031 RMK AO2
                 SNB0559 P0000 T11501172 $ =
2018-01-16 00:51 METAR KSLK 160551Z AUTO 00000KT 10SM FEW026 BKN070 OVC085 M15/M17 A3030 RMK AO2
                 SLP300 T11501172 11150 21167 58020 $ =
2018-01-16 00:43 METAR KSLK 160543Z AUTO 03003KT 10SM SCT026 OVC075 M15/M17 A3031 RMK AO2
                 T11501172 $ =
2018-01-15 23:51 METAR KSLK 160451Z AUTO 00000KT 10SM OVC024 M16/M18 A3033 RMK AO2 SLP312
                 T11561178 410941322 $ =
2018-01-15 23:30 METAR KSLK 160430Z AUTO 00000KT 10SM BKN025 OVC085 M16/M18 A3034 RMK AO2
                 T11561178 $ =
2018-01-15 22:51 METAR KSLK 160351Z AUTO 01004KT 10SM BKN080 OVC100 M16/M18 A3034 RMK AO2 SLP320
                 T11611183 $ =
2018-01-15 21:51 METAR KSLK 160251Z AUTO 03005KT 10SM OVC090 M17/M19 A3037 RMK AO2 SLP329
                 T11671189 56021 $ =
2018-01-15 20:51 METAR KSLK 160151Z AUTO 05004KT 10SM OVC110 M16/M18 A3038 RMK AO2 SLP336
                 T11611183 $ =
2018-01-15 19:51 METAR KSLK 160051Z AUTO 05005KT 10SM BKN110 M16/M18 A3041 RMK AO2 SLP351
                 T11561178 $ =
2018-01-15 18:51 METAR KSLK 152351Z AUTO 06006KT 10SM CLR M15/M17 A3043 RMK AO2 SLP358 T11501172
                 11094 21156 58002 $ =
2018-01-15 17:51 METAR KSLK 152251Z AUTO 06004KT 10SM CLR M14/M17 A3045 RMK AO2 SLP364 T11441167
                 $ =
2018-01-15 16:51 METAR KSLK 152151Z AUTO 05005KT 10SM CLR M16/M17 A3043 RMK AO2 SLP362 T11561172
                 $ =
2018-01-15 15:51 METAR KSLK 152051Z AUTO 07006KT 10SM CLR M11/M15 A3044 RMK AO2 SLP360 T11111150
                 56015 $ =
2018-01-15 14:51 METAR KSLK 151951Z AUTO 08004KT 10SM CLR M10/M14 A3045 RMK AO2 SLP364 T11001139
                 $ =
2018-01-15 13:51 METAR KSLK 151851Z AUTO 04003KT 10SM CLR M10/M15 A3046 RMK AO2 SLP366 T11001150
                 $ =
2018-01-15 12:51 METAR KSLK 151751Z AUTO 01003KT 10SM CLR M12/M16 A3048 RMK AO2 SLP376 T11171161
                 11117 21289 58031 $ =

Support USWX by starting your Amazon purchase here.